sensor_id;sensor_type;location;lat;lon;timestamp;P1;durP1;ratioP1;P2;durP2;ratioP2
10904;SDS011;5505;51.450;9.254;2024-01-06T00:02:27;4.97;;;2.67;;
10904;SDS011;5505;51.450;9.254;2024-01-06T00:05:14;3.73;;;2.00;;
10904;SDS011;5505;51.450;9.254;2024-01-06T00:08:01;3.37;;;1.83;;
10904;SDS011;5505;51.450;9.254;2024-01-06T00:10:49;4.50;;;1.70;;
10904;SDS011;5505;51.450;9.254;2024-01-06T00:13:36;5.07;;;2.80;;
10904;SDS011;5505;51.450;9.254;2024-01-06T00:16:23;5.10;;;3.30;;
10904;SDS011;5505;51.450;9.254;2024-01-06T00:19:10;4.33;;;2.83;;
10904;SDS011;5505;51.450;9.254;2024-01-06T00:21:57;4.47;;;2.10;;
10904;SDS011;5505;51.450;9.254;2024-01-06T00:24:45;2.77;;;1.77;;
10904;SDS011;5505;51.450;9.254;2024-01-06T00:27:34;3.10;;;1.57;;
10904;SDS011;5505;51.450;9.254;2024-01-06T00:30:21;6.17;;;3.17;;
10904;SDS011;5505;51.450;9.254;2024-01-06T00:33:08;5.60;;;3.20;;
10904;SDS011;5505;51.450;9.254;2024-01-06T00:35:55;5.33;;;3.23;;
10904;SDS011;5505;51.450;9.254;2024-01-06T00:38:41;9.00;;;4.63;;
10904;SDS011;5505;51.450;9.254;2024-01-06T00:41:28;5.33;;;3.90;;
10904;SDS011;5505;51.450;9.254;2024-01-06T00:44:16;5.83;;;3.50;;
10904;SDS011;5505;51.450;9.254;2024-01-06T00:47:03;5.27;;;4.00;;
10904;SDS011;5505;51.450;9.254;2024-01-06T00:49:50;5.43;;;3.03;;
10904;SDS011;5505;51.450;9.254;2024-01-06T00:52:37;5.13;;;3.30;;
10904;SDS011;5505;51.450;9.254;2024-01-06T00:55:24;5.43;;;1.70;;
10904;SDS011;5505;51.450;9.254;2024-01-06T00:58:11;4.67;;;2.50;;
10904;SDS011;5505;51.450;9.254;2024-01-06T01:00:59;3.03;;;1.97;;
10904;SDS011;5505;51.450;9.254;2024-01-06T01:03:46;4.27;;;2.20;;
10904;SDS011;5505;51.450;9.254;2024-01-06T01:06:33;3.17;;;1.47;;
10904;SDS011;5505;51.450;9.254;2024-01-06T01:09:20;13.10;;;5.97;;
10904;SDS011;5505;51.450;9.254;2024-01-06T01:12:06;2.37;;;1.33;;
10904;SDS011;5505;51.450;9.254;2024-01-06T01:14:53;18.50;;;11.33;;
10904;SDS011;5505;51.450;9.254;2024-01-06T01:17:41;6.47;;;4.23;;
10904;SDS011;5505;51.450;9.254;2024-01-06T01:20:29;6.70;;;3.80;;
10904;SDS011;5505;51.450;9.254;2024-01-06T01:23:15;2.67;;;1.67;;
10904;SDS011;5505;51.450;9.254;2024-01-06T01:26:02;3.03;;;1.57;;
10904;SDS011;5505;51.450;9.254;2024-01-06T01:28:49;2.50;;;1.07;;
10904;SDS011;5505;51.450;9.254;2024-01-06T01:31:36;1.70;;;1.00;;
10904;SDS011;5505;51.450;9.254;2024-01-06T01:34:24;1.77;;;0.77;;
10904;SDS011;5505;51.450;9.254;2024-01-06T01:37:11;2.13;;;0.87;;
10904;SDS011;5505;51.450;9.254;2024-01-06T01:39:58;3.27;;;1.13;;
10904;SDS011;5505;51.450;9.254;2024-01-06T01:42:45;2.40;;;1.10;;
10904;SDS011;5505;51.450;9.254;2024-01-06T01:45:32;1.43;;;0.80;;
10904;SDS011;5505;51.450;9.254;2024-01-06T01:48:18;1.47;;;0.87;;
10904;SDS011;5505;51.450;9.254;2024-01-06T01:51:08;2.43;;;0.93;;
10904;SDS011;5505;51.450;9.254;2024-01-06T01:53:56;2.97;;;0.90;;
10904;SDS011;5505;51.450;9.254;2024-01-06T01:56:44;2.27;;;1.20;;
10904;SDS011;5505;51.450;9.254;2024-01-06T01:59:31;2.10;;;0.70;;
10904;SDS011;5505;51.450;9.254;2024-01-06T02:02:18;1.00;;;0.63;;
10904;SDS011;5505;51.450;9.254;2024-01-06T02:05:06;1.63;;;0.83;;
10904;SDS011;5505;51.450;9.254;2024-01-06T02:07:55;1.63;;;0.80;;
10904;SDS011;5505;51.450;9.254;2024-01-06T02:10:42;1.10;;;0.90;;
10904;SDS011;5505;51.450;9.254;2024-01-06T02:13:32;2.63;;;0.90;;
10904;SDS011;5505;51.450;9.254;2024-01-06T02:16:20;1.50;;;0.60;;
10904;SDS011;5505;51.450;9.254;2024-01-06T02:19:07;1.47;;;0.90;;
10904;SDS011;5505;51.450;9.254;2024-01-06T02:21:58;1.60;;;0.90;;
10904;SDS011;5505;51.450;9.254;2024-01-06T02:24:45;2.23;;;0.97;;
10904;SDS011;5505;51.450;9.254;2024-01-06T02:27:32;2.97;;;1.00;;
10904;SDS011;5505;51.450;9.254;2024-01-06T02:30:18;1.17;;;0.77;;
10904;SDS011;5505;51.450;9.254;2024-01-06T02:33:05;1.70;;;0.90;;
10904;SDS011;5505;51.450;9.254;2024-01-06T02:35:52;2.03;;;1.10;;
10904;SDS011;5505;51.450;9.254;2024-01-06T02:38:40;3.37;;;1.03;;
10904;SDS011;5505;51.450;9.254;2024-01-06T02:41:27;1.87;;;0.90;;
10904;SDS011;5505;51.450;9.254;2024-01-06T02:44:14;3.13;;;0.90;;
10904;SDS011;5505;51.450;9.254;2024-01-06T02:47:01;0.87;;;0.80;;
10904;SDS011;5505;51.450;9.254;2024-01-06T02:49:47;2.47;;;1.20;;
10904;SDS011;5505;51.450;9.254;2024-01-06T02:52:34;2.27;;;0.80;;
10904;SDS011;5505;51.450;9.254;2024-01-06T02:55:22;2.33;;;0.80;;
10904;SDS011;5505;51.450;9.254;2024-01-06T02:58:09;0.77;;;0.70;;
10904;SDS011;5505;51.450;9.254;2024-01-06T03:00:56;1.80;;;0.90;;
10904;SDS011;5505;51.450;9.254;2024-01-06T03:03:44;2.60;;;1.33;;
10904;SDS011;5505;51.450;9.254;2024-01-06T03:06:31;1.30;;;0.93;;
10904;SDS011;5505;51.450;9.254;2024-01-06T03:09:17;1.30;;;1.07;;
10904;SDS011;5505;51.450;9.254;2024-01-06T03:12:06;2.83;;;1.40;;
10904;SDS011;5505;51.450;9.254;2024-01-06T03:14:53;1.57;;;1.03;;
10904;SDS011;5505;51.450;9.254;2024-01-06T03:17:40;1.53;;;1.13;;
10904;SDS011;5505;51.450;9.254;2024-01-06T03:20:27;1.97;;;1.00;;
10904;SDS011;5505;51.450;9.254;2024-01-06T03:23:14;1.47;;;1.10;;
10904;SDS011;5505;51.450;9.254;2024-01-06T03:26:04;1.47;;;1.00;;
10904;SDS011;5505;51.450;9.254;2024-01-06T03:28:54;2.10;;;0.93;;
10904;SDS011;5505;51.450;9.254;2024-01-06T03:31:41;1.97;;;0.90;;
10904;SDS011;5505;51.450;9.254;2024-01-06T03:34:28;1.67;;;1.00;;
10904;SDS011;5505;51.450;9.254;2024-01-06T03:37:15;1.90;;;1.10;;
10904;SDS011;5505;51.450;9.254;2024-01-06T03:40:03;1.17;;;0.87;;
10904;SDS011;5505;51.450;9.254;2024-01-06T03:42:50;2.00;;;1.23;;
10904;SDS011;5505;51.450;9.254;2024-01-06T03:45:40;2.10;;;0.80;;
10904;SDS011;5505;51.450;9.254;2024-01-06T03:48:27;1.33;;;1.07;;
10904;SDS011;5505;51.450;9.254;2024-01-06T03:51:14;3.97;;;1.23;;
10904;SDS011;5505;51.450;9.254;2024-01-06T03:54:00;3.17;;;1.13;;
10904;SDS011;5505;51.450;9.254;2024-01-06T03:56:47;1.73;;;1.10;;
10904;SDS011;5505;51.450;9.254;2024-01-06T03:59:34;2.20;;;1.00;;
10904;SDS011;5505;51.450;9.254;2024-01-06T04:02:22;1.87;;;1.10;;
10904;SDS011;5505;51.450;9.254;2024-01-06T04:05:10;3.00;;;1.10;;
10904;SDS011;5505;51.450;9.254;2024-01-06T04:07:56;1.07;;;0.97;;
10904;SDS011;5505;51.450;9.254;2024-01-06T04:10:43;3.90;;;1.20;;
10904;SDS011;5505;51.450;9.254;2024-01-06T04:13:30;2.90;;;1.20;;
10904;SDS011;5505;51.450;9.254;2024-01-06T04:16:17;1.60;;;1.10;;
10904;SDS011;5505;51.450;9.254;2024-01-06T04:19:05;3.60;;;1.17;;
10904;SDS011;5505;51.450;9.254;2024-01-06T04:21:52;1.23;;;0.97;;
10904;SDS011;5505;51.450;9.254;2024-01-06T04:24:39;2.07;;;1.33;;
10904;SDS011;5505;51.450;9.254;2024-01-06T04:27:26;3.10;;;1.90;;
10904;SDS011;5505;51.450;9.254;2024-01-06T04:30:13;1.90;;;1.17;;
10904;SDS011;5505;51.450;9.254;2024-01-06T04:33:00;3.67;;;1.43;;
10904;SDS011;5505;51.450;9.254;2024-01-06T04:35:48;4.73;;;1.83;;
10904;SDS011;5505;51.450;9.254;2024-01-06T04:38:35;4.03;;;1.97;;
10904;SDS011;5505;51.450;9.254;2024-01-06T04:41:22;2.80;;;1.90;;
10904;SDS011;5505;51.450;9.254;2024-01-06T04:44:08;2.07;;;1.50;;
10904;SDS011;5505;51.450;9.254;2024-01-06T04:46:55;2.53;;;1.63;;
10904;SDS011;5505;51.450;9.254;2024-01-06T04:49:42;2.00;;;1.50;;
10904;SDS011;5505;51.450;9.254;2024-01-06T04:52:30;3.17;;;1.50;;
10904;SDS011;5505;51.450;9.254;2024-01-06T04:55:17;1.83;;;1.33;;
10904;SDS011;5505;51.450;9.254;2024-01-06T04:58:04;2.20;;;1.03;;
10904;SDS011;5505;51.450;9.254;2024-01-06T05:00:51;3.07;;;1.30;;
10904;SDS011;5505;51.450;9.254;2024-01-06T05:03:38;3.97;;;1.80;;
10904;SDS011;5505;51.450;9.254;2024-01-06T05:06:25;3.80;;;1.67;;
10904;SDS011;5505;51.450;9.254;2024-01-06T05:09:13;2.23;;;1.50;;
10904;SDS011;5505;51.450;9.254;2024-01-06T05:12:00;2.67;;;1.87;;
10904;SDS011;5505;51.450;9.254;2024-01-06T05:14:47;2.60;;;2.23;;
10904;SDS011;5505;51.450;9.254;2024-01-06T05:17:34;4.27;;;2.30;;
10904;SDS011;5505;51.450;9.254;2024-01-06T05:20:21;3.73;;;2.30;;
10904;SDS011;5505;51.450;9.254;2024-01-06T05:23:07;4.67;;;2.83;;
10904;SDS011;5505;51.450;9.254;2024-01-06T05:25:55;5.00;;;1.97;;
10904;SDS011;5505;51.450;9.254;2024-01-06T05:28:42;2.33;;;2.13;;
10904;SDS011;5505;51.450;9.254;2024-01-06T05:31:29;3.23;;;2.27;;
10904;SDS011;5505;51.450;9.254;2024-01-06T05:34:16;4.67;;;2.50;;
10904;SDS011;5505;51.450;9.254;2024-01-06T05:37:03;4.30;;;2.70;;
10904;SDS011;5505;51.450;9.254;2024-01-06T05:39:50;4.37;;;2.53;;
10904;SDS011;5505;51.450;9.254;2024-01-06T05:42:38;7.17;;;2.87;;
10904;SDS011;5505;51.450;9.254;2024-01-06T05:45:25;3.67;;;2.40;;
10904;SDS011;5505;51.450;9.254;2024-01-06T05:48:12;3.73;;;2.40;;
10904;SDS011;5505;51.450;9.254;2024-01-06T05:50:59;5.10;;;3.50;;
10904;SDS011;5505;51.450;9.254;2024-01-06T05:53:46;4.90;;;3.20;;
10904;SDS011;5505;51.450;9.254;2024-01-06T05:56:33;3.73;;;2.60;;
10904;SDS011;5505;51.450;9.254;2024-01-06T05:59:21;3.37;;;2.50;;
10904;SDS011;5505;51.450;9.254;2024-01-06T06:02:08;3.27;;;2.40;;
10904;SDS011;5505;51.450;9.254;2024-01-06T06:04:54;4.80;;;2.67;;
10904;SDS011;5505;51.450;9.254;2024-01-06T06:07:41;3.63;;;2.70;;
10904;SDS011;5505;51.450;9.254;2024-01-06T06:10:28;3.13;;;2.37;;
10904;SDS011;5505;51.450;9.254;2024-01-06T06:13:26;3.53;;;2.40;;
10904;SDS011;5505;51.450;9.254;2024-01-06T06:16:14;3.50;;;2.60;;
10904;SDS011;5505;51.450;9.254;2024-01-06T06:19:01;4.83;;;2.93;;
10904;SDS011;5505;51.450;9.254;2024-01-06T06:21:48;3.97;;;2.80;;
10904;SDS011;5505;51.450;9.254;2024-01-06T06:24:35;4.37;;;2.50;;
10904;SDS011;5505;51.450;9.254;2024-01-06T06:27:22;2.63;;;2.40;;
10904;SDS011;5505;51.450;9.254;2024-01-06T06:30:09;3.33;;;2.30;;
10904;SDS011;5505;51.450;9.254;2024-01-06T06:32:58;4.23;;;2.90;;
10904;SDS011;5505;51.450;9.254;2024-01-06T06:35:45;3.23;;;2.53;;
10904;SDS011;5505;51.450;9.254;2024-01-06T06:38:32;4.17;;;2.43;;
10904;SDS011;5505;51.450;9.254;2024-01-06T06:41:19;4.00;;;2.70;;
10904;SDS011;5505;51.450;9.254;2024-01-06T06:44:05;3.33;;;2.63;;
10904;SDS011;5505;51.450;9.254;2024-01-06T06:46:52;3.63;;;3.23;;
10904;SDS011;5505;51.450;9.254;2024-01-06T06:49:40;4.67;;;3.70;;
10904;SDS011;5505;51.450;9.254;2024-01-06T06:52:27;4.23;;;2.90;;
10904;SDS011;5505;51.450;9.254;2024-01-06T06:55:14;7.13;;;6.43;;
10904;SDS011;5505;51.450;9.254;2024-01-06T06:58:01;5.57;;;3.10;;
10904;SDS011;5505;51.450;9.254;2024-01-06T07:00:48;5.80;;;2.70;;
10904;SDS011;5505;51.450;9.254;2024-01-06T07:03:35;2.93;;;2.47;;
10904;SDS011;5505;51.450;9.254;2024-01-06T07:06:23;4.13;;;2.87;;
10904;SDS011;5505;51.450;9.254;2024-01-06T07:09:10;5.50;;;3.63;;
10904;SDS011;5505;51.450;9.254;2024-01-06T07:11:59;4.10;;;3.67;;
10904;SDS011;5505;51.450;9.254;2024-01-06T07:14:46;6.30;;;4.20;;
10904;SDS011;5505;51.450;9.254;2024-01-06T07:17:33;7.03;;;3.30;;
10904;SDS011;5505;51.450;9.254;2024-01-06T07:20:20;29.67;;;20.90;;
10904;SDS011;5505;51.450;9.254;2024-01-06T07:23:08;10.17;;;8.30;;
10904;SDS011;5505;51.450;9.254;2024-01-06T07:25:55;7.90;;;6.97;;
10904;SDS011;5505;51.450;9.254;2024-01-06T07:28:43;7.90;;;6.83;;
10904;SDS011;5505;51.450;9.254;2024-01-06T07:31:29;5.23;;;4.20;;
10904;SDS011;5505;51.450;9.254;2024-01-06T07:34:16;3.73;;;3.00;;
10904;SDS011;5505;51.450;9.254;2024-01-06T07:37:03;5.87;;;2.90;;
10904;SDS011;5505;51.450;9.254;2024-01-06T07:39:52;3.80;;;2.83;;
10904;SDS011;5505;51.450;9.254;2024-01-06T07:42:39;2.80;;;2.50;;
10904;SDS011;5505;51.450;9.254;2024-01-06T07:45:26;3.43;;;1.90;;
10904;SDS011;5505;51.450;9.254;2024-01-06T07:48:13;4.43;;;2.20;;
10904;SDS011;5505;51.450;9.254;2024-01-06T07:51:00;4.53;;;2.30;;
10904;SDS011;5505;51.450;9.254;2024-01-06T07:53:47;4.37;;;2.10;;
10904;SDS011;5505;51.450;9.254;2024-01-06T07:56:35;3.10;;;2.20;;
10904;SDS011;5505;51.450;9.254;2024-01-06T07:59:22;3.70;;;2.50;;
10904;SDS011;5505;51.450;9.254;2024-01-06T08:02:09;4.30;;;2.40;;
10904;SDS011;5505;51.450;9.254;2024-01-06T08:04:55;3.67;;;2.70;;
10904;SDS011;5505;51.450;9.254;2024-01-06T08:07:43;2.60;;;2.13;;
10904;SDS011;5505;51.450;9.254;2024-01-06T08:10:30;3.23;;;2.23;;
10904;SDS011;5505;51.450;9.254;2024-01-06T08:13:19;2.73;;;2.10;;
10904;SDS011;5505;51.450;9.254;2024-01-06T08:16:05;3.23;;;2.43;;
10904;SDS011;5505;51.450;9.254;2024-01-06T08:18:52;5.00;;;2.30;;
10904;SDS011;5505;51.450;9.254;2024-01-06T08:21:39;3.33;;;2.23;;
10904;SDS011;5505;51.450;9.254;2024-01-06T08:24:26;8.67;;;5.27;;
10904;SDS011;5505;51.450;9.254;2024-01-06T08:27:13;16.97;;;10.60;;
10904;SDS011;5505;51.450;9.254;2024-01-06T08:30:01;8.53;;;5.57;;
10904;SDS011;5505;51.450;9.254;2024-01-06T08:32:48;5.93;;;3.20;;
10904;SDS011;5505;51.450;9.254;2024-01-06T08:35:35;4.40;;;3.33;;
10904;SDS011;5505;51.450;9.254;2024-01-06T08:38:25;5.87;;;3.10;;
10904;SDS011;5505;51.450;9.254;2024-01-06T08:41:12;4.00;;;2.80;;
10904;SDS011;5505;51.450;9.254;2024-01-06T08:43:59;4.60;;;2.73;;
10904;SDS011;5505;51.450;9.254;2024-01-06T08:46:47;4.03;;;2.57;;
10904;SDS011;5505;51.450;9.254;2024-01-06T08:49:34;4.97;;;3.00;;
10904;SDS011;5505;51.450;9.254;2024-01-06T08:52:21;3.77;;;2.53;;
10904;SDS011;5505;51.450;9.254;2024-01-06T08:55:08;9.53;;;4.77;;
10904;SDS011;5505;51.450;9.254;2024-01-06T08:57:55;4.63;;;3.87;;
10904;SDS011;5505;51.450;9.254;2024-01-06T09:00:41;6.27;;;3.53;;
10904;SDS011;5505;51.450;9.254;2024-01-06T09:03:30;10.27;;;7.70;;
10904;SDS011;5505;51.450;9.254;2024-01-06T09:06:16;6.13;;;4.60;;
10904;SDS011;5505;51.450;9.254;2024-01-06T09:09:03;7.23;;;3.67;;
10904;SDS011;5505;51.450;9.254;2024-01-06T09:11:51;4.50;;;4.00;;
10904;SDS011;5505;51.450;9.254;2024-01-06T09:14:41;4.40;;;4.00;;
10904;SDS011;5505;51.450;9.254;2024-01-06T09:17:28;5.37;;;4.47;;
10904;SDS011;5505;51.450;9.254;2024-01-06T09:20:16;5.17;;;4.07;;
10904;SDS011;5505;51.450;9.254;2024-01-06T09:23:07;3.50;;;3.20;;
10904;SDS011;5505;51.450;9.254;2024-01-06T09:25:55;5.27;;;3.27;;
10904;SDS011;5505;51.450;9.254;2024-01-06T09:28:42;3.93;;;3.20;;
10904;SDS011;5505;51.450;9.254;2024-01-06T09:31:29;4.97;;;3.30;;
10904;SDS011;5505;51.450;9.254;2024-01-06T09:34:15;5.17;;;4.17;;
10904;SDS011;5505;51.450;9.254;2024-01-06T09:37:04;5.53;;;4.43;;
10904;SDS011;5505;51.450;9.254;2024-01-06T09:39:51;5.20;;;4.03;;
10904;SDS011;5505;51.450;9.254;2024-01-06T09:42:38;5.57;;;4.20;;
10904;SDS011;5505;51.450;9.254;2024-01-06T09:45:24;5.00;;;3.10;;
10904;SDS011;5505;51.450;9.254;2024-01-06T09:48:12;5.50;;;3.07;;
10904;SDS011;5505;51.450;9.254;2024-01-06T09:51:00;3.83;;;3.20;;
10904;SDS011;5505;51.450;9.254;2024-01-06T09:53:52;6.70;;;3.97;;
10904;SDS011;5505;51.450;9.254;2024-01-06T09:56:44;6.23;;;4.00;;
10904;SDS011;5505;51.450;9.254;2024-01-06T09:59:32;5.23;;;3.60;;
10904;SDS011;5505;51.450;9.254;2024-01-06T10:02:22;4.00;;;3.60;;
10904;SDS011;5505;51.450;9.254;2024-01-06T10:05:10;5.77;;;4.10;;
10904;SDS011;5505;51.450;9.254;2024-01-06T10:07:58;7.17;;;4.60;;
10904;SDS011;5505;51.450;9.254;2024-01-06T10:10:47;5.40;;;4.00;;
10904;SDS011;5505;51.450;9.254;2024-01-06T10:13:34;6.17;;;4.33;;
10904;SDS011;5505;51.450;9.254;2024-01-06T10:16:22;8.03;;;5.03;;
10904;SDS011;5505;51.450;9.254;2024-01-06T10:19:09;5.70;;;4.40;;
10904;SDS011;5505;51.450;9.254;2024-01-06T10:21:56;4.97;;;4.43;;
10904;SDS011;5505;51.450;9.254;2024-01-06T10:24:47;12.10;;;7.33;;
10904;SDS011;5505;51.450;9.254;2024-01-06T10:27:35;6.00;;;4.70;;
10904;SDS011;5505;51.450;9.254;2024-01-06T10:30:22;8.07;;;4.03;;
10904;SDS011;5505;51.450;9.254;2024-01-06T10:33:11;5.73;;;4.30;;
10904;SDS011;5505;51.450;9.254;2024-01-06T10:36:00;4.93;;;4.03;;
10904;SDS011;5505;51.450;9.254;2024-01-06T10:38:48;10.27;;;7.60;;
10904;SDS011;5505;51.450;9.254;2024-01-06T10:41:35;15.23;;;12.00;;
10904;SDS011;5505;51.450;9.254;2024-01-06T10:44:26;6.30;;;5.17;;
10904;SDS011;5505;51.450;9.254;2024-01-06T10:47:14;6.10;;;5.00;;
10904;SDS011;5505;51.450;9.254;2024-01-06T10:50:03;12.10;;;9.90;;
10904;SDS011;5505;51.450;9.254;2024-01-06T10:52:51;8.80;;;7.60;;
10904;SDS011;5505;51.450;9.254;2024-01-06T10:55:39;5.57;;;4.63;;
10904;SDS011;5505;51.450;9.254;2024-01-06T10:58:27;4.93;;;4.20;;
10904;SDS011;5505;51.450;9.254;2024-01-06T11:01:16;6.97;;;4.80;;
10904;SDS011;5505;51.450;9.254;2024-01-06T11:04:06;5.37;;;4.87;;
10904;SDS011;5505;51.450;9.254;2024-01-06T11:06:54;9.10;;;8.20;;
10904;SDS011;5505;51.450;9.254;2024-01-06T11:09:42;7.50;;;6.77;;
10904;SDS011;5505;51.450;9.254;2024-01-06T11:12:35;5.97;;;5.27;;
10904;SDS011;5505;51.450;9.254;2024-01-06T11:18:33;9.77;;;8.77;;
10904;SDS011;5505;51.450;9.254;2024-01-06T11:21:20;4.63;;;4.23;;
10904;SDS011;5505;51.450;9.254;2024-01-06T11:24:11;5.10;;;4.27;;
10904;SDS011;5505;51.450;9.254;2024-01-06T11:27:01;5.20;;;4.70;;
10904;SDS011;5505;51.450;9.254;2024-01-06T11:29:48;6.70;;;5.77;;
10904;SDS011;5505;51.450;9.254;2024-01-06T11:32:38;4.50;;;4.10;;
10904;SDS011;5505;51.450;9.254;2024-01-06T11:35:28;4.57;;;4.10;;
10904;SDS011;5505;51.450;9.254;2024-01-06T11:38:16;4.57;;;3.80;;
10904;SDS011;5505;51.450;9.254;2024-01-06T11:41:03;5.90;;;4.10;;
10904;SDS011;5505;51.450;9.254;2024-01-06T11:43:52;4.73;;;4.30;;
10904;SDS011;5505;51.450;9.254;2024-01-06T11:46:39;5.03;;;4.53;;
10904;SDS011;5505;51.450;9.254;2024-01-06T11:49:29;4.67;;;4.27;;
10904;SDS011;5505;51.450;9.254;2024-01-06T11:52:17;4.20;;;3.80;;
10904;SDS011;5505;51.450;9.254;2024-01-06T11:55:04;61.03;;;30.20;;
10904;SDS011;5505;51.450;9.254;2024-01-06T11:57:53;15.83;;;10.10;;
10904;SDS011;5505;51.450;9.254;2024-01-06T12:00:41;11.00;;;7.63;;
10904;SDS011;5505;51.450;9.254;2024-01-06T12:03:29;6.23;;;5.43;;
10904;SDS011;5505;51.450;9.254;2024-01-06T12:06:19;6.17;;;4.97;;
10904;SDS011;5505;51.450;9.254;2024-01-06T12:09:10;5.87;;;4.60;;
10904;SDS011;5505;51.450;9.254;2024-01-06T12:12:03;6.30;;;5.10;;
10904;SDS011;5505;51.450;9.254;2024-01-06T12:14:51;5.40;;;4.77;;
10904;SDS011;5505;51.450;9.254;2024-01-06T12:17:39;6.80;;;5.27;;
10904;SDS011;5505;51.450;9.254;2024-01-06T12:20:26;5.87;;;5.27;;
10904;SDS011;5505;51.450;9.254;2024-01-06T12:23:23;7.53;;;5.43;;
10904;SDS011;5505;51.450;9.254;2024-01-06T12:26:11;5.23;;;4.33;;
10904;SDS011;5505;51.450;9.254;2024-01-06T12:28:58;5.73;;;5.00;;
10904;SDS011;5505;51.450;9.254;2024-01-06T12:31:49;4.93;;;4.37;;
10904;SDS011;5505;51.450;9.254;2024-01-06T12:34:37;9.83;;;7.40;;
10904;SDS011;5505;51.450;9.254;2024-01-06T12:37:25;5.33;;;4.80;;
10904;SDS011;5505;51.450;9.254;2024-01-06T12:40:12;4.73;;;4.33;;
10904;SDS011;5505;51.450;9.254;2024-01-06T12:43:03;5.20;;;4.70;;
10904;SDS011;5505;51.450;9.254;2024-01-06T12:45:50;8.53;;;7.37;;
10904;SDS011;5505;51.450;9.254;2024-01-06T12:48:37;13.73;;;10.23;;
10904;SDS011;5505;51.450;9.254;2024-01-06T12:51:24;8.27;;;6.87;;
10904;SDS011;5505;51.450;9.254;2024-01-06T12:54:11;5.97;;;4.97;;
10904;SDS011;5505;51.450;9.254;2024-01-06T12:56:58;5.37;;;4.80;;
10904;SDS011;5505;51.450;9.254;2024-01-06T12:59:46;5.63;;;4.33;;
10904;SDS011;5505;51.450;9.254;2024-01-06T13:02:33;5.03;;;4.53;;
10904;SDS011;5505;51.450;9.254;2024-01-06T13:05:20;5.83;;;5.00;;
10904;SDS011;5505;51.450;9.254;2024-01-06T13:08:07;7.30;;;5.00;;
10904;SDS011;5505;51.450;9.254;2024-01-06T13:10:54;6.63;;;5.23;;
10904;SDS011;5505;51.450;9.254;2024-01-06T13:13:41;7.63;;;5.83;;
10904;SDS011;5505;51.450;9.254;2024-01-06T13:16:30;8.57;;;6.57;;
10904;SDS011;5505;51.450;9.254;2024-01-06T13:19:16;9.37;;;7.13;;
10904;SDS011;5505;51.450;9.254;2024-01-06T13:22:04;7.67;;;6.20;;
10904;SDS011;5505;51.450;9.254;2024-01-06T13:24:51;7.27;;;5.67;;
10904;SDS011;5505;51.450;9.254;2024-01-06T13:27:38;7.63;;;5.20;;
10904;SDS011;5505;51.450;9.254;2024-01-06T13:30:25;6.97;;;5.43;;
10904;SDS011;5505;51.450;9.254;2024-01-06T13:33:14;7.83;;;5.40;;
10904;SDS011;5505;51.450;9.254;2024-01-06T13:36:00;8.40;;;5.37;;
10904;SDS011;5505;51.450;9.254;2024-01-06T13:38:49;6.70;;;5.10;;
10904;SDS011;5505;51.450;9.254;2024-01-06T13:41:36;9.73;;;5.10;;
10904;SDS011;5505;51.450;9.254;2024-01-06T13:44:22;7.50;;;4.77;;
10904;SDS011;5505;51.450;9.254;2024-01-06T13:47:09;6.47;;;4.53;;
10904;SDS011;5505;51.450;9.254;2024-01-06T13:49:58;8.50;;;5.37;;
10904;SDS011;5505;51.450;9.254;2024-01-06T13:52:44;6.83;;;4.90;;
10904;SDS011;5505;51.450;9.254;2024-01-06T13:55:31;6.50;;;4.50;;
10904;SDS011;5505;51.450;9.254;2024-01-06T13:58:19;8.17;;;4.97;;
10904;SDS011;5505;51.450;9.254;2024-01-06T14:01:06;7.60;;;4.87;;
10904;SDS011;5505;51.450;9.254;2024-01-06T14:03:56;6.50;;;4.40;;
10904;SDS011;5505;51.450;9.254;2024-01-06T14:06:45;6.37;;;4.07;;
10904;SDS011;5505;51.450;9.254;2024-01-06T14:09:32;6.93;;;4.13;;
10904;SDS011;5505;51.450;9.254;2024-01-06T14:12:19;6.63;;;3.97;;
10904;SDS011;5505;51.450;9.254;2024-01-06T14:15:07;6.13;;;4.50;;
10904;SDS011;5505;51.450;9.254;2024-01-06T14:17:54;6.53;;;4.47;;
10904;SDS011;5505;51.450;9.254;2024-01-06T14:20:41;6.90;;;4.60;;
10904;SDS011;5505;51.450;9.254;2024-01-06T14:23:29;5.83;;;3.97;;
10904;SDS011;5505;51.450;9.254;2024-01-06T14:26:17;6.73;;;4.27;;
10904;SDS011;5505;51.450;9.254;2024-01-06T14:29:05;7.43;;;5.17;;
10904;SDS011;5505;51.450;9.254;2024-01-06T14:31:52;8.97;;;5.80;;
10904;SDS011;5505;51.450;9.254;2024-01-06T14:34:38;11.43;;;7.20;;
10904;SDS011;5505;51.450;9.254;2024-01-06T14:37:25;10.37;;;7.03;;
10904;SDS011;5505;51.450;9.254;2024-01-06T14:40:13;7.53;;;5.60;;
10904;SDS011;5505;51.450;9.254;2024-01-06T14:43:00;7.17;;;5.70;;
10904;SDS011;5505;51.450;9.254;2024-01-06T14:45:49;8.23;;;5.83;;
10904;SDS011;5505;51.450;9.254;2024-01-06T14:48:36;9.47;;;6.43;;
10904;SDS011;5505;51.450;9.254;2024-01-06T14:51:23;11.37;;;5.93;;
10904;SDS011;5505;51.450;9.254;2024-01-06T14:54:09;8.83;;;5.83;;
10904;SDS011;5505;51.450;9.254;2024-01-06T14:56:58;10.40;;;6.17;;
10904;SDS011;5505;51.450;9.254;2024-01-06T14:59:44;10.67;;;6.33;;
10904;SDS011;5505;51.450;9.254;2024-01-06T15:02:31;11.27;;;6.83;;
10904;SDS011;5505;51.450;9.254;2024-01-06T15:05:18;10.90;;;7.17;;
10904;SDS011;5505;51.450;9.254;2024-01-06T15:08:05;9.63;;;6.57;;
10904;SDS011;5505;51.450;9.254;2024-01-06T15:10:52;8.97;;;6.07;;
10904;SDS011;5505;51.450;9.254;2024-01-06T15:13:40;14.37;;;8.30;;
10904;SDS011;5505;51.450;9.254;2024-01-06T15:16:27;15.27;;;8.37;;
10904;SDS011;5505;51.450;9.254;2024-01-06T15:19:14;12.40;;;8.27;;
10904;SDS011;5505;51.450;9.254;2024-01-06T15:22:01;12.67;;;8.00;;
10904;SDS011;5505;51.450;9.254;2024-01-06T15:24:48;16.30;;;8.87;;
10904;SDS011;5505;51.450;9.254;2024-01-06T15:27:36;12.57;;;8.40;;
10904;SDS011;5505;51.450;9.254;2024-01-06T15:30:24;14.83;;;8.80;;
10904;SDS011;5505;51.450;9.254;2024-01-06T15:33:11;10.77;;;7.63;;
10904;SDS011;5505;51.450;9.254;2024-01-06T15:35:59;8.83;;;6.53;;
10904;SDS011;5505;51.450;9.254;2024-01-06T15:38:46;11.30;;;7.67;;
10904;SDS011;5505;51.450;9.254;2024-01-06T15:41:33;9.23;;;6.80;;
10904;SDS011;5505;51.450;9.254;2024-01-06T15:44:20;10.60;;;7.03;;
10904;SDS011;5505;51.450;9.254;2024-01-06T15:47:08;10.43;;;6.77;;
10904;SDS011;5505;51.450;9.254;2024-01-06T15:49:56;8.93;;;6.67;;
10904;SDS011;5505;51.450;9.254;2024-01-06T15:52:43;8.10;;;5.83;;
10904;SDS011;5505;51.450;9.254;2024-01-06T15:55:31;10.27;;;6.80;;
10904;SDS011;5505;51.450;9.254;2024-01-06T15:58:18;8.50;;;6.50;;
10904;SDS011;5505;51.450;9.254;2024-01-06T16:01:05;9.13;;;6.03;;
10904;SDS011;5505;51.450;9.254;2024-01-06T16:03:53;8.90;;;6.23;;
10904;SDS011;5505;51.450;9.254;2024-01-06T16:06:40;9.83;;;6.67;;
10904;SDS011;5505;51.450;9.254;2024-01-06T16:09:28;8.17;;;6.03;;
10904;SDS011;5505;51.450;9.254;2024-01-06T16:12:15;10.10;;;6.70;;
10904;SDS011;5505;51.450;9.254;2024-01-06T16:15:02;9.13;;;6.30;;
10904;SDS011;5505;51.450;9.254;2024-01-06T16:17:50;10.03;;;6.37;;
10904;SDS011;5505;51.450;9.254;2024-01-06T16:20:39;9.37;;;6.07;;
10904;SDS011;5505;51.450;9.254;2024-01-06T16:23:25;9.07;;;5.37;;
10904;SDS011;5505;51.450;9.254;2024-01-06T16:26:12;9.23;;;5.93;;
10904;SDS011;5505;51.450;9.254;2024-01-06T16:28:59;10.10;;;6.33;;
10904;SDS011;5505;51.450;9.254;2024-01-06T16:31:46;10.10;;;6.23;;
10904;SDS011;5505;51.450;9.254;2024-01-06T16:34:33;8.67;;;6.00;;
10904;SDS011;5505;51.450;9.254;2024-01-06T16:37:21;10.40;;;6.40;;
10904;SDS011;5505;51.450;9.254;2024-01-06T16:40:08;11.60;;;6.70;;
10904;SDS011;5505;51.450;9.254;2024-01-06T16:42:55;12.27;;;6.57;;
10904;SDS011;5505;51.450;9.254;2024-01-06T16:45:42;9.47;;;6.87;;
10904;SDS011;5505;51.450;9.254;2024-01-06T16:48:29;7.70;;;5.73;;
10904;SDS011;5505;51.450;9.254;2024-01-06T16:51:16;9.43;;;6.10;;
10904;SDS011;5505;51.450;9.254;2024-01-06T16:54:04;9.00;;;5.33;;
10904;SDS011;5505;51.450;9.254;2024-01-06T16:56:51;7.50;;;5.43;;
10904;SDS011;5505;51.450;9.254;2024-01-06T16:59:38;8.03;;;5.83;;
10904;SDS011;5505;51.450;9.254;2024-01-06T17:02:27;7.23;;;5.77;;
10904;SDS011;5505;51.450;9.254;2024-01-06T17:05:14;8.70;;;5.60;;
10904;SDS011;5505;51.450;9.254;2024-01-06T17:08:01;21.70;;;14.23;;